Time;durP1;ratioP1;P1;durP2;ratioP2;P2;SDS_P1;SDS_P2;PMS_P1;PMS_P2;Temp;Humidity;BMP_temperature;BMP_pressure;BME280_temperature;BME280_humidity;BME280_pressure;Samples;Min_cycle;Max_cycle;Signal;HPM_P1;HPM_P2
2023/04/04 00:01:44;;;;;;;22.63;20.80;;;-1.90;99.90;;;;;;5060602;28;20033;-77
2023/04/04 00:04:11;;;;;;;22.95;21.42;;;-2.00;99.90;;;;;;5062382;28;20501;-73
2023/04/04 00:06:43;;;;;;;22.20;20.67;;;-2.10;99.90;;;;;;5073015;28;20043;-74
2023/04/04 00:09:10;;;;;;;21.63;20.02;;;-2.10;99.90;;;;;;5062870;28;20666;-75
2023/04/04 00:11:37;;;;;;;21.45;19.95;;;-2.20;99.90;;;;;;5063502;28;20102;-77
2023/04/04 00:14:04;;;;;;;21.40;19.60;;;-2.20;99.90;;;;;;5048893;28;20053;-75
2023/04/04 00:16:31;;;;;;;21.70;19.42;;;-2.20;99.90;;;;;;5046336;28;20505;-73
2023/04/04 00:18:58;;;;;;;21.33;19.63;;;-2.20;99.90;;;;;;5064505;28;20055;-74
2023/04/04 00:21:26;;;;;;;21.35;19.75;;;-2.30;99.90;;;;;;5068115;28;20033;-73
2023/04/04 00:23:53;;;;;;;21.63;20.00;;;-2.40;99.90;;;;;;5047647;28;20040;-74
2023/04/04 00:26:20;;;;;;;21.10;19.15;;;-2.50;99.90;;;;;;5066266;28;20388;-75
2023/04/04 00:28:47;;;;;;;22.05;20.13;;;-2.50;99.90;;;;;;5060395;28;20464;-73
2023/04/04 00:31:14;;;;;;;20.80;19.33;;;-2.60;99.90;;;;;;5063774;28;20075;-74
2023/04/04 00:33:41;;;;;;;20.02;18.42;;;-2.60;99.90;;;;;;5061228;28;20049;-74
2023/04/04 00:36:08;;;;;;;20.05;18.33;;;-2.70;99.90;;;;;;5042796;28;20043;-74
2023/04/04 00:38:34;;;;;;;20.00;18.60;;;-2.60;99.90;;;;;;5052501;28;20036;-76
2023/04/04 00:41:05;;;;;;;20.63;18.83;;;-2.50;99.90;;;;;;5070656;28;20089;-77
2023/04/04 00:43:33;;;;;;;18.85;17.30;;;-2.60;99.90;;;;;;5047994;28;20048;-74
2023/04/04 00:46:00;;;;;;;18.35;16.75;;;-2.50;99.90;;;;;;5065379;28;20040;-74
2023/04/04 00:48:28;;;;;;;19.23;17.48;;;-2.40;99.90;;;;;;5051381;28;20056;-75
2023/04/04 00:50:57;;;;;;;17.90;16.60;;;-2.30;99.90;;;;;;5064921;28;20051;-77
2023/04/04 00:53:24;;;;;;;18.15;16.90;;;-2.30;99.90;;;;;;5050626;28;20079;-78
2023/04/04 00:55:51;;;;;;;18.52;17.00;;;-2.30;99.90;;;;;;5063934;28;20282;-78
2023/04/04 00:58:18;;;;;;;18.10;16.67;;;-2.30;99.90;;;;;;5068617;28;20053;-79
2023/04/04 01:00:45;;;;;;;18.90;17.40;;;-2.40;99.90;;;;;;5064537;28;20048;-76
2023/04/04 01:03:13;;;;;;;20.48;18.35;;;-2.50;99.90;;;;;;5062690;28;20513;-76
2023/04/04 01:05:40;;;;;;;20.13;18.23;;;-2.70;99.90;;;;;;5066894;28;20571;-78
2023/04/04 01:08:07;;;;;;;19.23;17.95;;;-2.80;99.90;;;;;;5061119;28;20110;-75
2023/04/04 01:10:35;;;;;;;19.02;17.70;;;-2.80;99.90;;;;;;5061192;28;20048;-74
2023/04/04 01:13:02;;;;;;;19.98;18.45;;;-2.90;99.90;;;;;;5045917;28;20055;-74
2023/04/04 01:15:29;;;;;;;19.30;17.75;;;-2.90;99.90;;;;;;5064952;28;20068;-72
2023/04/04 01:17:58;;;;;;;19.17;17.85;;;-3.00;99.90;;;;;;5046620;28;20623;-74
2023/04/04 01:20:28;;;;;;;19.08;17.50;;;-2.80;99.90;;;;;;5060767;28;20045;-74
2023/04/04 01:22:57;;;;;;;19.75;18.17;;;-3.00;99.90;;;;;;5061548;28;20048;-74
2023/04/04 01:25:31;;;;;;;19.42;18.02;;;-3.00;99.90;;;;;;5061874;28;20052;-73
2023/04/04 01:28:02;;;;;;;19.15;17.38;;;-3.00;99.90;;;;;;5058860;28;20124;-74
2023/04/04 01:30:35;;;;;;;18.48;16.95;;;-3.00;99.90;;;;;;5060307;28;20198;-74
2023/04/04 01:33:12;;;;;;;18.70;17.17;;;-3.00;99.90;;;;;;5057965;28;20048;-74
2023/04/04 01:35:58;;;;;;;19.05;17.52;;;-3.10;99.90;;;;;;5066469;28;20043;-73
2023/04/04 01:38:52;;;;;;;17.77;16.55;;;-3.20;99.90;;;;;;5042850;28;20044;-73
2023/04/04 01:41:20;;;;;;;17.88;16.67;;;-3.20;99.90;;;;;;5071413;28;20052;-74
2023/04/04 01:43:55;;;;;;;19.02;17.35;;;-3.30;99.90;;;;;;5067418;28;20040;-74
2023/04/04 01:46:22;;;;;;;19.08;17.27;;;-3.40;99.90;;;;;;5053248;28;20040;-74
2023/04/04 01:48:49;;;;;;;18.65;17.13;;;-3.20;99.90;;;;;;5048458;28;20052;-73
2023/04/04 01:51:22;;;;;;;18.10;16.50;;;-3.30;99.90;;;;;;5047562;28;20090;-75
2023/04/04 01:53:50;;;;;;;17.65;16.02;;;-3.10;99.90;;;;;;5060087;28;20538;-75
2023/04/04 01:56:17;;;;;;;17.27;16.10;;;-3.10;99.90;;;;;;5068733;28;20485;-74
2023/04/04 01:58:43;;;;;;;17.88;16.38;;;-3.20;99.90;;;;;;5059755;28;20122;-74
2023/04/04 02:01:10;;;;;;;17.92;16.67;;;-3.30;99.90;;;;;;5059717;28;20533;-75
2023/04/04 02:03:37;;;;;;;17.98;16.20;;;-3.40;99.90;;;;;;5049489;28;20040;-75
2023/04/04 02:06:04;;;;;;;17.42;16.23;;;-3.40;99.90;;;;;;5074638;28;20055;-74
2023/04/04 02:08:31;;;;;;;17.77;16.10;;;-3.40;99.90;;;;;;5040674;28;20119;-75
2023/04/04 02:10:57;;;;;;;17.33;16.13;;;-3.40;99.90;;;;;;5042633;28;20576;-74
2023/04/04 02:13:25;;;;;;;17.98;16.40;;;-3.40;99.90;;;;;;5044376;28;20057;-75
2023/04/04 02:15:53;;;;;;;17.88;16.58;;;-3.50;99.90;;;;;;5061455;28;20145;-75
2023/04/04 02:18:20;;;;;;;17.58;15.98;;;-3.50;99.90;;;;;;5061561;28;20564;-74
2023/04/04 02:20:55;;;;;;;18.02;16.42;;;-3.50;99.90;;;;;;5062158;28;20059;-74
2023/04/04 02:23:21;;;;;;;;;;;-3.50;99.90;;;;;;5060809;28;20052;-74
2023/04/04 02:25:51;;;;;;;16.98;15.82;;;-3.60;99.90;;;;;;5060292;28;19920;-74
2023/04/04 02:28:18;;;;;;;17.00;15.80;;;-3.60;99.90;;;;;;5061015;28;20052;-74
2023/04/04 02:30:46;;;;;;;17.13;15.70;;;-3.50;99.90;;;;;;5063033;28;20222;-75
2023/04/04 02:33:13;;;;;;;16.75;15.55;;;-3.50;99.90;;;;;;5061572;28;20044;-75
2023/04/04 02:35:40;;;;;;;16.13;15.02;;;-3.50;99.90;;;;;;5058482;28;20651;-75
2023/04/04 02:38:06;;;;;;;17.77;16.33;;;-3.60;99.90;;;;;;5073599;28;20067;-74
2023/04/04 02:40:40;;;;;;;16.02;14.63;;;-3.60;99.90;;;;;;5053862;28;20051;-75
2023/04/04 02:43:08;;;;;;;16.85;15.07;;;-3.60;99.90;;;;;;5048271;28;20606;-75
2023/04/04 02:45:35;;;;;;;17.35;15.60;;;-3.70;99.90;;;;;;5064735;28;20040;-75
2023/04/04 02:48:21;;;;;;;15.35;14.25;;;-3.70;99.90;;;;;;5062490;28;20635;-75
2023/04/04 02:50:50;;;;;;;16.20;14.68;;;-3.70;99.90;;;;;;5056633;28;20041;-75
2023/04/04 02:53:17;;;;;;;16.45;15.05;;;-3.60;99.90;;;;;;5044366;28;20048;-75
2023/04/04 02:55:46;;;;;;;16.23;14.98;;;-3.70;99.90;;;;;;5060598;28;21283;-75
2023/04/04 02:58:13;;;;;;;16.80;15.50;;;-3.70;99.90;;;;;;5060517;28;20040;-74
2023/04/04 03:00:40;;;;;;;18.90;17.23;;;-3.80;99.90;;;;;;5057125;28;20050;-75
2023/04/04 03:03:07;;;;;;;19.02;17.48;;;-3.80;99.90;;;;;;5059372;28;20147;-75
2023/04/04 03:05:40;;;;;;;23.08;20.60;;;-3.80;99.90;;;;;;5054405;28;20494;-75
2023/04/04 03:08:07;;;;;;;21.38;16.98;;;-3.80;99.90;;;;;;5054462;28;20330;-75
2023/04/04 03:10:33;;;;;;;20.00;18.27;;;-3.80;99.90;;;;;;5048045;28;20067;-75
2023/04/04 03:13:00;;;;;;;30.08;26.90;;;-3.80;99.90;;;;;;5060302;28;20744;-75
2023/04/04 03:15:29;;;;;;;31.90;28.15;;;-3.80;99.90;;;;;;5050353;28;20079;-75
2023/04/04 03:17:57;;;;;;;33.95;29.38;;;-3.70;99.90;;;;;;5061613;28;20115;-75
2023/04/04 03:20:26;;;;;;;43.70;34.80;;;-3.50;99.90;;;;;;5056657;28;20448;-75
2023/04/04 03:22:52;;;;;;;21.08;19.20;;;-3.40;99.90;;;;;;5057736;28;20131;-74
2023/04/04 03:25:19;;;;;;;22.52;20.20;;;-3.40;99.90;;;;;;5063172;28;20084;-75
2023/04/04 03:27:46;;;;;;;22.83;20.35;;;-3.40;99.90;;;;;;5065704;28;20075;-75
2023/04/04 03:30:19;;;;;;;22.40;19.27;;;-3.60;99.90;;;;;;5063958;28;20056;-79
2023/04/04 03:32:46;;;;;;;28.02;24.92;;;-3.60;99.90;;;;;;5060950;28;20131;-75
2023/04/04 03:35:13;;;;;;;30.33;26.60;;;-3.70;99.90;;;;;;5040208;28;20401;-75
2023/04/04 03:37:41;;;;;;;23.83;21.30;;;-3.80;99.90;;;;;;5061059;28;20088;-74
2023/04/04 03:40:08;;;;;;;23.05;20.98;;;-3.80;99.90;;;;;;5044042;28;20124;-74
2023/04/04 03:42:35;;;;;;;26.58;23.50;;;-3.80;99.90;;;;;;5071499;28;20044;-75
2023/04/04 03:45:07;;;;;;;26.13;23.73;;;-3.80;99.90;;;;;;5067790;28;20032;-75
2023/04/04 03:47:35;;;;;;;27.90;21.85;;;-3.90;99.90;;;;;;5069016;28;20646;-74
2023/04/04 03:50:02;;;;;;;21.05;19.10;;;-3.90;99.90;;;;;;5062339;28;20040;-75
2023/04/04 03:52:30;;;;;;;22.63;18.85;;;-3.90;99.90;;;;;;5041873;28;20071;-75
2023/04/04 03:54:57;;;;;;;19.63;17.73;;;-3.90;99.90;;;;;;5042931;28;20668;-73
2023/04/04 03:57:26;;;;;;;25.45;20.52;;;-3.80;99.90;;;;;;5060410;28;20040;-74
2023/04/04 03:59:52;;;;;;;25.80;23.20;;;-3.70;99.90;;;;;;5063985;28;20048;-74
2023/04/04 04:02:21;;;;;;;20.52;18.38;;;-3.70;99.90;;;;;;5043966;28;20037;-73
2023/04/04 04:04:48;;;;;;;19.70;17.95;;;-3.80;99.90;;;;;;5058882;28;20068;-74
2023/04/04 04:07:14;;;;;;;20.40;18.50;;;-3.80;99.90;;;;;;5066104;28;20143;-75
2023/04/04 04:09:41;;;;;;;18.38;16.88;;;-3.80;99.90;;;;;;5060527;28;20097;-74
2023/04/04 04:12:08;;;;;;;19.33;17.45;;;-3.80;99.90;;;;;;5045138;28;20606;-76
2023/04/04 04:14:36;;;;;;;19.63;17.75;;;-3.90;99.90;;;;;;5050900;28;20040;-75
2023/04/04 04:17:03;;;;;;;18.85;17.45;;;-3.90;99.90;;;;;;5047720;28;20247;-75
2023/04/04 04:19:30;;;;;;;19.45;17.90;;;-3.90;99.90;;;;;;5065951;28;20053;-75
2023/04/04 04:21:56;;;;;;;18.77;17.35;;;-3.90;99.90;;;;;;5058256;28;20037;-76
2023/04/04 04:24:23;;;;;;;19.13;17.38;;;-3.90;99.90;;;;;;5064815;28;20489;-75
2023/04/04 04:26:50;;;;;;;20.00;18.35;;;-3.90;99.90;;;;;;5046300;28;20041;-75
2023/04/04 04:29:16;;;;;;;20.17;18.60;;;-3.90;99.90;;;;;;5046326;28;20070;-76
2023/04/04 04:31:44;;;;;;;18.67;16.85;;;-4.00;99.90;;;;;;5048894;28;20068;-78
2023/04/04 04:34:11;;;;;;;18.88;17.48;;;-3.90;99.90;;;;;;5038862;28;20594;-77
2023/04/04 04:36:39;;;;;;;19.25;17.73;;;-3.80;99.90;;;;;;5066175;28;20040;-76
2023/04/04 04:39:23;;;;;;;19.02;17.48;;;-3.90;99.90;;;;;;5058424;28;20401;-76
2023/04/04 04:42:09;;;;;;;18.58;16.88;;;-3.90;99.90;;;;;;5059037;28;20144;-78
2023/04/04 04:44:43;;;;;;;19.60;17.67;;;-3.80;99.90;;;;;;5064069;28;20045;-75
2023/04/04 04:47:10;;;;;;;18.13;16.63;;;-3.70;99.90;;;;;;5047816;28;20052;-75
2023/04/04 04:49:37;;;;;;;18.52;16.73;;;-3.80;99.90;;;;;;5063989;28;20102;-75
2023/04/04 04:52:07;;;;;;;16.83;15.63;;;-3.80;99.90;;;;;;5062611;28;20537;-76
2023/04/04 04:54:35;;;;;;;17.58;16.17;;;-3.80;99.90;;;;;;5054166;28;20044;-74
2023/04/04 04:57:02;;;;;;;18.00;16.50;;;-3.90;99.90;;;;;;5046555;28;20090;-74
2023/04/04 04:59:29;;;;;;;16.90;15.65;;;-4.00;99.90;;;;;;5041626;28;20049;-74
2023/04/04 05:01:58;;;;;;;17.05;15.40;;;-4.10;99.90;;;;;;5058481;28;20036;-75
2023/04/04 05:04:26;;;;;;;16.55;15.27;;;-4.00;99.90;;;;;;5052611;28;20040;-75
2023/04/04 05:07:03;;;;;;;18.33;16.75;;;-4.10;99.90;;;;;;5061000;28;20036;-75
2023/04/04 05:09:31;;;;;;;17.42;15.90;;;-4.10;99.90;;;;;;5061351;28;20102;-74
2023/04/04 05:11:57;;;;;;;21.38;16.15;;;-4.20;99.90;;;;;;5041852;28;20041;-75
2023/04/04 05:14:34;;;;;;;18.63;16.85;;;-4.30;99.90;;;;;;5043153;28;20139;-75
2023/04/04 05:17:01;;;;;;;18.50;17.08;;;-4.10;99.90;;;;;;5059369;28;20044;-74
2023/04/04 05:19:31;;;;;;;19.27;17.83;;;-4.10;99.90;;;;;;5051683;28;20052;-73
2023/04/04 05:21:58;;;;;;;19.60;18.10;;;-4.10;99.90;;;;;;5064021;28;20040;-74
2023/04/04 05:24:31;;;;;;;19.50;17.80;;;-4.10;99.90;;;;;;5047479;28;20044;-75
2023/04/04 05:26:59;;;;;;;20.08;18.48;;;-4.10;99.90;;;;;;5059749;28;20047;-75
2023/04/04 05:29:32;;;;;;;19.55;17.88;;;-3.80;99.90;;;;;;5060636;28;20050;-74
2023/04/04 05:32:00;;;;;;;18.67;17.10;;;-3.60;99.90;;;;;;5064833;28;20067;-74
2023/04/04 05:34:27;;;;;;;18.35;16.77;;;-3.60;99.90;;;;;;5061958;28;20052;-74
2023/04/04 05:36:56;;;;;;;18.85;17.02;;;-3.60;99.90;;;;;;5063061;28;20037;-75
2023/04/04 05:39:23;;;;;;;23.60;17.30;;;-3.60;99.90;;;;;;5064290;28;20067;-75
2023/04/04 05:42:00;;;;;;;18.75;17.15;;;-3.80;99.90;;;;;;5061451;28;20055;-75
2023/04/04 05:44:31;;;;;;;19.63;17.63;;;-3.60;99.90;;;;;;5063991;28;20139;-75
2023/04/04 05:46:57;;;;;;;19.50;17.95;;;-3.60;99.90;;;;;;5047305;28;20045;-75
2023/04/04 05:49:27;;;;;;;24.38;22.13;;;-3.50;99.90;;;;;;5061013;28;20036;-75
2023/04/04 05:52:00;;;;;;;20.98;19.08;;;-3.50;99.90;;;;;;5052687;28;20040;-75
2023/04/04 05:54:28;;;;;;;21.38;19.27;;;-3.50;99.90;;;;;;5045184;28;20143;-75
2023/04/04 05:56:57;;;;;;;22.05;19.60;;;-3.50;99.90;;;;;;5056649;28;20045;-75
2023/04/04 05:59:39;;;;;;;21.17;19.05;;;-3.50;99.90;;;;;;5061522;28;20501;-75
2023/04/04 06:02:08;;;;;;;21.60;19.38;;;-3.50;99.90;;;;;;5037544;28;20036;-75
2023/04/04 06:04:39;;;;;;;21.75;19.73;;;-3.40;99.90;;;;;;5062319;28;20124;-75
2023/04/04 06:07:08;;;;;;;21.75;19.50;;;-3.20;99.90;;;;;;5044524;28;20048;-75
2023/04/04 06:09:35;;;;;;;22.27;20.15;;;-3.30;99.90;;;;;;5063000;28;20041;-75
2023/04/04 06:12:05;;;;;;;24.20;21.85;;;-3.20;99.90;;;;;;5041899;28;20036;-75
2023/04/04 06:14:36;;;;;;;24.23;22.02;;;-3.20;99.90;;;;;;5055642;28;20036;-76
2023/04/04 06:17:05;;;;;;;25.20;22.75;;;-3.10;99.90;;;;;;5038154;28;20075;-75
2023/04/04 06:19:33;;;;;;;24.30;22.10;;;-3.10;99.90;;;;;;5061315;28;20056;-75
2023/04/04 06:22:00;;;;;;;23.45;21.63;;;-3.00;99.90;;;;;;5059074;28;20040;-75
2023/04/04 06:24:30;;;;;;;24.00;21.67;;;-2.90;99.90;;;;;;5054669;28;20115;-75
2023/04/04 06:26:56;;;;;;;21.80;19.80;;;-2.70;99.90;;;;;;5060350;28;20067;-75
2023/04/04 06:29:25;;;;;;;23.27;20.83;;;-2.60;99.90;;;;;;5061475;28;20438;-75
2023/04/04 06:31:54;;;;;;;21.33;19.60;;;-2.50;99.90;;;;;;5057430;28;20694;-75
2023/04/04 06:34:32;;;;;;;21.50;19.65;;;-2.40;99.90;;;;;;5046501;28;20135;-75
2023/04/04 06:37:00;;;;;;;20.52;18.80;;;-2.20;99.90;;;;;;5042705;28;20044;-75
2023/04/04 06:39:33;;;;;;;19.77;18.13;;;-2.20;99.90;;;;;;5042910;28;20048;-75
2023/04/04 06:42:02;;;;;;;20.08;18.23;;;-1.90;99.90;;;;;;5037747;28;20082;-75
2023/04/04 06:44:32;;;;;;;20.23;18.42;;;-1.80;99.90;;;;;;5067077;28;20131;-75
2023/04/04 06:46:59;;;;;;;22.55;20.42;;;-1.60;99.90;;;;;;5060516;28;20245;-75
2023/04/04 06:49:25;;;;;;;21.50;19.80;;;-1.50;99.90;;;;;;5067296;28;20036;-75
2023/04/04 06:51:53;;;;;;;22.15;20.02;;;-1.40;99.90;;;;;;5061473;28;20167;-75
2023/04/04 06:54:19;;;;;;;23.00;20.95;;;-1.20;99.90;;;;;;5057844;28;20048;-75
2023/04/04 06:56:46;;;;;;;22.10;20.33;;;-1.00;99.90;;;;;;5069980;28;20046;-75
2023/04/04 06:59:13;;;;;;;22.52;20.48;;;-0.80;99.90;;;;;;5040980;28;20048;-76
2023/04/04 07:01:40;;;;;;;22.98;20.75;;;-0.60;99.90;;;;;;5059906;28;20136;-75
2023/04/04 07:04:07;;;;;;;24.30;22.48;;;-0.40;99.90;;;;;;5047030;28;20495;-75
2023/04/04 07:06:33;;;;;;;26.55;24.50;;;-0.30;99.90;;;;;;5060280;28;20044;-75
2023/04/04 07:09:00;;;;;;;26.08;24.15;;;-0.20;99.90;;;;;;5053564;28;20636;-75
2023/04/04 07:11:28;;;;;;;25.83;24.02;;;0.00;99.90;;;;;;5062479;28;20674;-75
2023/04/04 07:13:55;;;;;;;27.10;25.05;;;0.30;99.90;;;;;;5055585;28;20040;-75
2023/04/04 07:16:22;;;;;;;27.13;24.88;;;0.50;99.90;;;;;;5031937;28;20135;-75
2023/04/04 07:18:49;;;;;;;30.77;28.17;;;0.90;99.90;;;;;;5058263;28;20048;-75
2023/04/04 07:21:16;;;;;;;30.52;27.90;;;1.20;99.90;;;;;;5062117;28;20062;-75
2023/04/04 07:23:42;;;;;;;33.70;31.13;;;1.60;99.90;;;;;;5068306;28;20043;-75
2023/04/04 07:26:09;;;;;;;30.73;28.40;;;1.80;99.90;;;;;;5061562;28;20040;-75
2023/04/04 07:28:36;;;;;;;31.30;29.02;;;2.40;99.90;;;;;;5070574;28;20644;-74
2023/04/04 07:31:02;;;;;;;31.13;29.02;;;2.80;99.90;;;;;;5068781;28;20074;-75
2023/04/04 07:33:29;;;;;;;32.45;30.08;;;2.90;99.90;;;;;;5056228;28;20297;-75
2023/04/04 07:35:56;;;;;;;32.90;30.77;;;3.20;99.90;;;;;;5055801;28;20055;-75
2023/04/04 07:38:23;;;;;;;34.10;31.75;;;3.30;99.90;;;;;;5064442;28;20040;-75
2023/04/04 07:40:50;;;;;;;32.50;30.10;;;3.50;99.90;;;;;;5052746;28;20040;-74
2023/04/04 07:43:16;;;;;;;36.05;33.58;;;3.60;99.90;;;;;;5060796;28;20032;-74
2023/04/04 07:45:43;;;;;;;37.00;34.38;;;3.60;99.90;;;;;;5063311;28;20043;-74
2023/04/04 07:48:10;;;;;;;37.20;34.50;;;3.70;99.90;;;;;;5040299;28;20052;-74
2023/04/04 07:50:37;;;;;;;36.30;34.05;;;4.00;99.90;;;;;;5055622;28;20568;-74
2023/04/04 07:53:04;;;;;;;38.35;35.92;;;3.40;99.90;;;;;;5049657;28;20044;-74
2023/04/04 07:55:30;;;;;;;37.38;34.85;;;3.20;99.90;;;;;;5062384;28;20267;-74
2023/04/04 07:57:57;;;;;;;37.72;35.22;;;3.10;99.90;;;;;;5053708;28;20132;-74
2023/04/04 08:00:25;;;;;;;37.47;35.08;;;3.20;99.90;;;;;;5065564;28;20428;-74
2023/04/04 08:02:53;;;;;;;36.60;34.15;;;3.40;99.90;;;;;;5056032;28;20056;-74
2023/04/04 08:05:20;;;;;;;40.50;37.88;;;3.90;99.90;;;;;;5065545;28;20043;-74
2023/04/04 08:07:47;;;;;;;40.58;38.10;;;4.30;99.90;;;;;;5061611;28;20074;-75
2023/04/04 08:10:16;;;;;;;42.22;38.55;;;4.00;99.90;;;;;;5043298;28;20414;-74
2023/04/04 08:12:43;;;;;;;40.70;37.90;;;3.50;99.90;;;;;;5066942;28;20099;-74
2023/04/04 08:15:10;;;;;;;40.75;38.15;;;3.50;99.90;;;;;;5044358;28;20156;-74
2023/04/04 08:17:37;;;;;;;40.88;38.25;;;3.60;99.90;;;;;;5064010;28;20052;-75
2023/04/04 08:20:06;;;;;;;43.40;40.38;;;3.90;99.90;;;;;;5063110;28;20124;-74
2023/04/04 08:22:33;;;;;;;42.67;39.88;;;4.30;99.90;;;;;;5068573;28;20109;-74
2023/04/04 08:24:59;;;;;;;40.97;38.28;;;4.30;99.90;;;;;;5061514;28;20040;-74
2023/04/04 08:27:26;;;;;;;41.55;38.95;;;4.60;99.90;;;;;;5071253;28;20416;-74
2023/04/04 08:29:53;;;;;;;40.28;37.40;;;5.00;99.90;;;;;;5066575;28;20036;-74
2023/04/04 08:32:21;;;;;;;40.10;37.58;;;5.10;99.90;;;;;;5064547;28;20045;-74
2023/04/04 08:34:48;;;;;;;40.30;37.08;;;5.30;99.90;;;;;;5059360;28;20095;-74
2023/04/04 08:37:15;;;;;;;40.20;37.70;;;5.20;99.90;;;;;;5064933;28;20145;-74
2023/04/04 08:39:42;;;;;;;40.38;37.70;;;4.90;99.90;;;;;;5062616;28;20413;-74
2023/04/04 08:42:10;;;;;;;40.20;37.50;;;4.80;99.90;;;;;;5061924;28;20131;-73
2023/04/04 08:44:40;;;;;;;40.17;37.67;;;4.40;99.90;;;;;;5063730;28;20037;-74
2023/04/04 08:47:09;;;;;;;42.20;39.40;;;4.60;99.90;;;;;;5058450;28;20048;-74
2023/04/04 08:49:42;;;;;;;39.28;36.85;;;4.10;99.90;;;;;;5047841;28;20071;-73
2023/04/04 08:52:11;;;;;;;39.65;37.05;;;4.60;99.90;;;;;;5063353;28;20071;-74
2023/04/04 08:54:40;;;;;;;39.47;36.80;;;4.50;99.90;;;;;;5069983;28;20430;-73
2023/04/04 08:57:07;;;;;;;37.13;34.60;;;4.40;99.90;;;;;;5066331;28;20044;-73
2023/04/04 08:59:33;;;;;;;37.17;34.78;;;5.10;99.90;;;;;;5064609;28;20036;-73
2023/04/04 09:02:12;;;;;;;36.75;34.45;;;4.80;99.90;;;;;;5063452;28;20098;-73
2023/04/04 09:04:41;;;;;;;37.22;34.92;;;4.40;99.90;;;;;;5057928;28;20036;-74
2023/04/04 09:07:14;;;;;;;36.90;34.45;;;4.20;99.90;;;;;;5065009;28;20097;-74
2023/04/04 09:09:45;;;;;;;36.60;34.22;;;4.30;99.90;;;;;;5068659;28;20044;-74
2023/04/04 09:12:15;;;;;;;35.92;33.50;;;4.80;99.90;;;;;;5062298;28;20194;-73
2023/04/04 09:14:45;;;;;;;36.20;33.90;;;5.50;99.90;;;;;;5057195;28;20048;-73
2023/04/04 09:17:12;;;;;;;34.72;32.47;;;5.50;99.90;;;;;;5064626;28;20067;-74
2023/04/04 09:19:39;;;;;;;36.25;33.75;;;5.20;99.90;;;;;;5058844;28;20048;-74
2023/04/04 09:22:06;;;;;;;34.88;32.40;;;4.90;99.90;;;;;;5058024;28;20036;-73
2023/04/04 09:24:41;;;;;;;37.38;34.55;;;5.10;99.90;;;;;;5057377;28;20047;-74
2023/04/04 09:27:09;;;;;;;38.50;36.08;;;5.20;99.90;;;;;;5059258;28;20041;-74
2023/04/04 09:29:40;;;;;;;37.50;34.72;;;5.90;99.90;;;;;;5064286;28;20066;-74
2023/04/04 09:32:14;;;;;;;37.22;34.38;;;6.30;99.90;;;;;;5059937;28;20232;-74
2023/04/04 09:34:45;;;;;;;39.80;36.97;;;5.80;99.90;;;;;;5061697;28;20052;-73
2023/04/04 09:37:15;;;;;;;38.47;35.63;;;6.30;99.90;;;;;;5065047;28;20094;-74
2023/04/04 09:39:42;;;;;;;37.58;34.97;;;5.80;99.90;;;;;;5057679;28;20071;-74
2023/04/04 09:42:11;;;;;;;37.60;34.88;;;5.80;99.90;;;;;;5062613;28;20082;-74
2023/04/04 09:44:38;;;;;;;38.03;35.42;;;5.70;99.90;;;;;;5059576;28;20064;-74
2023/04/04 09:47:25;;;;;;;38.22;35.83;;;5.90;99.90;;;;;;5043712;28;20663;-73
2023/04/04 09:50:00;;;;;;;46.53;43.35;;;6.50;99.90;;;;;;5060665;28;20123;-71
2023/04/04 09:52:31;;;;;;;44.47;41.42;;;6.00;99.90;;;;;;5061073;28;20387;-72
2023/04/04 09:55:00;;;;;;;46.25;43.17;;;5.40;99.90;;;;;;5055910;28;20044;-74
2023/04/04 09:57:31;;;;;;;44.28;41.58;;;5.40;99.90;;;;;;5053457;28;20037;-74
2023/04/04 10:00:06;;;;;;;47.80;44.53;;;5.30;99.90;;;;;;5057494;28;20526;-72
2023/04/04 10:02:37;;;;;;;47.42;44.35;;;4.90;99.90;;;;;;5057266;28;20037;-72
2023/04/04 10:05:05;;;;;;;45.88;43.08;;;4.90;99.90;;;;;;5059366;28;20688;-72
2023/04/04 10:07:33;;;;;;;44.40;41.60;;;5.10;99.90;;;;;;5060572;28;20435;-73
2023/04/04 10:10:03;;;;;;;45.38;42.72;;;5.30;99.90;;;;;;5056571;28;20826;-72
2023/04/04 10:12:30;;;;;;;45.35;42.67;;;5.80;99.90;;;;;;5055304;28;20049;-71
2023/04/04 10:14:58;;;;;;;45.92;43.08;;;5.80;99.90;;;;;;5040305;28;20068;-73
2023/04/04 10:17:30;;;;;;;48.03;45.13;;;6.30;99.90;;;;;;5058091;28;20048;-73
2023/04/04 10:20:00;;;;;;;48.65;45.53;;;6.80;99.90;;;;;;5054778;28;20037;-73
2023/04/04 10:22:27;;;;;;;46.80;43.88;;;6.50;99.90;;;;;;5061924;28;20546;-73
2023/04/04 10:24:54;;;;;;;49.40;46.20;;;6.90;99.90;;;;;;5053247;28;20417;-71
2023/04/04 10:27:21;;;;;;;47.85;44.90;;;6.80;99.90;;;;;;5052742;28;20521;-72
2023/04/04 10:29:48;;;;;;;47.42;44.50;;;6.60;99.90;;;;;;5058258;28;20039;-71
2023/04/04 10:32:22;;;;;;;48.95;46.03;;;6.00;99.90;;;;;;5052554;28;20125;-71
2023/04/04 10:34:58;;;;;;;47.97;45.17;;;6.00;99.90;;;;;;5064536;28;20725;-71
2023/04/04 10:37:27;;;;;;;48.10;45.30;;;6.50;99.90;;;;;;5059395;28;20057;-71
2023/04/04 10:40:03;;;;;;;48.53;45.63;;;7.20;99.90;;;;;;5060489;28;20148;-71
2023/04/04 10:42:37;;;;;;;47.05;44.05;;;6.90;99.90;;;;;;5055048;28;20052;-74
2023/04/04 10:45:07;;;;;;;47.28;44.47;;;6.70;99.90;;;;;;5059394;28;20048;-75
2023/04/04 10:47:47;;;;;;;48.92;45.83;;;6.90;99.90;;;;;;5066550;28;20520;-71
2023/04/04 10:50:14;;;;;;;49.80;46.22;;;6.70;99.90;;;;;;5060670;28;20094;-74
2023/04/04 10:52:43;;;;;;;50.58;47.47;;;6.60;99.90;;;;;;5054485;28;20113;-73
2023/04/04 10:55:12;;;;;;;50.53;47.25;;;6.90;99.90;;;;;;5057675;28;20139;-76
2023/04/04 10:57:44;;;;;;;49.40;46.22;;;6.60;99.90;;;;;;5060783;28;20048;-72
2023/04/04 11:00:19;;;;;;;51.33;48.33;;;6.70;99.90;;;;;;5053356;28;20236;-74
2023/04/04 11:02:51;;;;;;;49.83;46.83;;;5.90;99.90;;;;;;5067149;28;20068;-73
2023/04/04 11:05:21;;;;;;;50.35;46.90;;;6.50;99.90;;;;;;5057682;28;20040;-74
2023/04/04 11:07:53;;;;;;;48.22;45.35;;;6.70;99.90;;;;;;5059747;28;20043;-71
2023/04/04 11:10:30;;;;;;;48.28;45.50;;;7.10;99.90;;;;;;5060653;28;20501;-73
2023/04/04 11:13:06;;;;;;;48.72;45.83;;;7.40;99.90;;;;;;5059599;28;20045;-72
2023/04/04 11:16:00;;;;;;;49.25;46.30;;;7.20;99.90;;;;;;5053880;28;20502;-74
2023/04/04 11:18:40;;;;;;;47.40;44.70;;;6.30;99.90;;;;;;5061308;28;20052;-71
2023/04/04 11:21:09;;;;;;;49.67;46.60;;;6.40;99.90;;;;;;5050651;28;20056;-74
2023/04/04 11:23:47;;;;;;;51.67;48.47;;;6.10;99.90;;;;;;5051572;28;20046;-73
2023/04/04 11:26:18;;;;;;;49.05;46.25;;;6.00;99.90;;;;;;5058337;28;20036;-72
2023/04/04 11:28:46;;;;;;;49.60;46.65;;;6.30;99.90;;;;;;5053742;28;20402;-73
2023/04/04 11:31:16;;;;;;;50.60;47.60;;;5.80;99.90;;;;;;5053403;28;20115;-73
2023/04/04 11:33:56;;;;;;;50.03;47.08;;;5.60;99.90;;;;;;5054924;28;20767;-73
2023/04/04 11:36:38;;;;;;;49.30;46.47;;;6.00;99.90;;;;;;5061855;28;20098;-73
2023/04/04 11:39:13;;;;;;;47.70;44.58;;;6.40;99.90;;;;;;5059961;28;20048;-74
2023/04/04 11:42:07;;;;;;;49.40;46.55;;;6.50;99.90;;;;;;5056920;28;20066;-72
2023/04/04 11:44:40;;;;;;;49.90;46.55;;;6.90;99.90;;;;;;5064747;28;20047;-73
2023/04/04 11:47:08;;;;;;;49.50;46.60;;;6.40;99.90;;;;;;5062321;28;20046;-73
2023/04/04 11:49:40;;;;;;;48.65;45.63;;;6.60;99.90;;;;;;5058969;28;20776;-72
2023/04/04 11:52:12;;;;;;;50.00;46.80;;;7.00;99.90;;;;;;5058051;28;21857;-73
2023/04/04 11:54:41;;;;;;;50.40;47.35;;;6.50;99.90;;;;;;5065607;28;20594;-72
2023/04/04 11:57:11;;;;;;;50.15;47.05;;;6.30;99.90;;;;;;5067478;28;20053;-71
2023/04/04 11:59:43;;;;;;;48.55;45.50;;;6.40;99.90;;;;;;5041649;28;20051;-72
2023/04/04 12:02:11;;;;;;;49.30;46.33;;;6.50;99.90;;;;;;5065719;28;20498;-72
2023/04/04 12:04:39;;;;;;;47.72;44.72;;;6.70;99.90;;;;;;5066030;28;20540;-73
2023/04/04 12:07:09;;;;;;;47.63;44.85;;;7.20;99.90;;;;;;5059275;28;20644;-72
2023/04/04 12:09:37;;;;;;;48.42;45.35;;;6.90;99.90;;;;;;5063180;28;20289;-72
2023/04/04 12:12:06;;;;;;;44.30;41.60;;;7.20;99.90;;;;;;5062196;28;20044;-71
2023/04/04 12:14:33;;;;;;;49.63;46.42;;;7.60;99.90;;;;;;5062566;28;20039;-76
2023/04/04 12:17:01;;;;;;;47.90;44.95;;;7.50;99.90;;;;;;5068671;28;20032;-73
2023/04/04 12:19:28;;;;;;;45.70;42.67;;;7.50;99.90;;;;;;5044630;28;20072;-72
2023/04/04 12:21:56;;;;;;;49.35;46.47;;;7.50;99.90;;;;;;5046178;28;20116;-73
2023/04/04 12:24:23;;;;;;;49.40;46.58;;;7.40;99.90;;;;;;5063573;28;20389;-74
2023/04/04 12:26:51;;;;;;;47.45;44.42;;;7.20;99.90;;;;;;5040044;28;20068;-72
2023/04/04 12:29:21;;;;;;;47.78;44.88;;;7.60;99.90;;;;;;5065841;28;20067;-72
2023/04/04 12:31:49;;;;;;;48.00;45.10;;;7.60;99.90;;;;;;5058812;28;20043;-71
2023/04/04 12:34:24;;;;;;;47.50;44.58;;;7.70;99.90;;;;;;5056498;28;20756;-72
2023/04/04 12:36:51;;;;;;;47.47;44.50;;;7.80;99.90;;;;;;5057166;28;20566;-73
2023/04/04 12:39:20;;;;;;;47.20;44.25;;;8.00;99.90;;;;;;5061660;28;20052;-72
2023/04/04 12:42:07;;;;;;;47.88;44.85;;;8.20;99.90;;;;;;5063223;28;20138;-73